sensor_id;sensor_type;location;lat;lon;timestamp;pressure;altitude;pressure_sealevel;temperature;humidity
8280;BME280;8335;42.646;23.380;2023-08-06T00:00:25;146663.50;;;20.64;100.00
8280;BME280;8335;42.646;23.380;2023-08-06T00:02:52;146667.28;;;20.65;100.00
8280;BME280;8335;42.646;23.380;2023-08-06T00:05:19;146673.53;;;20.68;100.00
8280;BME280;8335;42.646;23.380;2023-08-06T00:07:46;146676.03;;;20.69;100.00
8280;BME280;8335;42.646;23.380;2023-08-06T00:10:14;146648.50;;;20.57;100.00
8280;BME280;8335;42.646;23.380;2023-08-06T00:12:41;146676.03;;;20.69;100.00
8280;BME280;8335;42.646;23.380;2023-08-06T00:15:09;146603.34;;;20.39;100.00
8280;BME280;8335;42.646;23.380;2023-08-06T00:17:36;146711.13;;;20.83;100.00
8280;BME280;8335;42.646;23.380;2023-08-06T00:20:03;146698.56;;;20.78;100.00
8280;BME280;8335;42.646;23.380;2023-08-06T00:22:31;146697.31;;;20.77;100.00
8280;BME280;8335;42.646;23.380;2023-08-06T00:24:58;146692.31;;;20.75;100.00
8280;BME280;8335;42.646;23.380;2023-08-06T00:27:26;146698.56;;;20.78;100.00
8280;BME280;8335;42.646;23.380;2023-08-06T00:29:53;146701.13;;;20.79;100.00
8280;BME280;8335;42.646;23.380;2023-08-06T00:32:20;146707.38;;;20.81;100.00
8280;BME280;8335;42.646;23.380;2023-08-06T00:34:47;146706.13;;;20.81;100.00
8280;BME280;8335;42.646;23.380;2023-08-06T00:37:15;146678.53;;;20.70;100.00
8280;BME280;8335;42.646;23.380;2023-08-06T00:39:42;146651.00;;;20.58;100.00
8280;BME280;8335;42.646;23.380;2023-08-06T00:42:10;146622.19;;;20.47;100.00
8280;BME280;8335;42.646;23.380;2023-08-06T00:44:38;146622.19;;;20.47;100.00
8280;BME280;8335;42.646;23.380;2023-08-06T00:47:07;146647.22;;;20.57;100.00
8280;BME280;8335;42.646;23.380;2023-08-06T00:49:35;146668.53;;;20.66;100.00
8280;BME280;8335;42.646;23.380;2023-08-06T00:52:03;146678.53;;;20.70;100.00
8280;BME280;8335;42.646;23.380;2023-08-06T00:54:31;146633.47;;;20.51;100.00
8280;BME280;8335;42.646;23.380;2023-08-06T00:56:58;146666.03;;;20.65;100.00
8280;BME280;8335;42.646;23.380;2023-08-06T00:59:26;146679.78;;;20.70;100.00
8280;BME280;8335;42.646;23.380;2023-08-06T01:01:54;146687.34;;;20.73;100.00
8280;BME280;8335;42.646;23.380;2023-08-06T01:04:22;146701.13;;;20.79;100.00
8280;BME280;8335;42.646;23.380;2023-08-06T01:06:59;146707.38;;;20.81;100.00
8280;BME280;8335;42.646;23.380;2023-08-06T01:09:36;146716.13;;;20.85;100.00
8280;BME280;8335;42.646;23.380;2023-08-06T01:12:12;146703.63;;;20.80;100.00
8280;BME280;8335;42.646;23.380;2023-08-06T01:15:02;146701.13;;;20.79;100.00
8280;BME280;8335;42.646;23.380;2023-08-06T01:17:34;146711.13;;;20.83;100.00
8280;BME280;8335;42.646;23.380;2023-08-06T01:20:01;146717.38;;;20.85;100.00
8280;BME280;8335;42.646;23.380;2023-08-06T01:22:30;146727.41;;;20.89;100.00
8280;BME280;8335;42.646;23.380;2023-08-06T01:24:57;146716.13;;;20.85;100.00
8280;BME280;8335;42.646;23.380;2023-08-06T01:27:28;146717.38;;;20.85;100.00
8280;BME280;8335;42.646;23.380;2023-08-06T01:30:03;146703.63;;;20.80;100.00
8280;BME280;8335;42.646;23.380;2023-08-06T01:32:32;146717.38;;;20.85;100.00
8280;BME280;8335;42.646;23.380;2023-08-06T01:35:02;146714.88;;;20.84;100.00
8280;BME280;8335;42.646;23.380;2023-08-06T01:37:32;146704.88;;;20.80;100.00
8280;BME280;8335;42.646;23.380;2023-08-06T01:39:59;146691.09;;;20.75;100.00
8280;BME280;8335;42.646;23.380;2023-08-06T01:42:25;146696.06;;;20.77;100.00
8280;BME280;8335;42.646;23.380;2023-08-06T01:44:52;146698.56;;;20.78;100.00
8280;BME280;8335;42.646;23.380;2023-08-06T01:47:19;146684.84;;;20.72;100.00
8280;BME280;8335;42.646;23.380;2023-08-06T01:49:46;146684.84;;;20.72;100.00
8280;BME280;8335;42.646;23.380;2023-08-06T01:52:13;146698.56;;;20.78;100.00
8280;BME280;8335;42.646;23.380;2023-08-06T01:54:41;146698.56;;;20.78;100.00
8280;BME280;8335;42.646;23.380;2023-08-06T01:57:08;146697.31;;;20.77;100.00
8280;BME280;8335;42.646;23.380;2023-08-06T01:59:34;146701.13;;;20.79;100.00
8280;BME280;8335;42.646;23.380;2023-08-06T02:02:01;146684.84;;;20.72;100.00
8280;BME280;8335;42.646;23.380;2023-08-06T02:04:28;146671.03;;;20.67;100.00
8280;BME280;8335;42.646;23.380;2023-08-06T02:06:55;146673.53;;;20.68;100.00
8280;BME280;8335;42.646;23.380;2023-08-06T02:09:21;146673.53;;;20.68;100.00
8280;BME280;8335;42.646;23.380;2023-08-06T02:11:49;146651.00;;;20.58;100.00
8280;BME280;8335;42.646;23.380;2023-08-06T02:14:16;146653.50;;;20.59;100.00
8280;BME280;8335;42.646;23.380;2023-08-06T02:16:43;146661.00;;;20.63;100.00
8280;BME280;8335;42.646;23.380;2023-08-06T02:19:10;146673.53;;;20.68;100.00
8280;BME280;8335;42.646;23.380;2023-08-06T02:21:36;146661.00;;;20.63;100.00
8280;BME280;8335;42.646;23.380;2023-08-06T02:24:03;146653.50;;;20.59;100.00
8280;BME280;8335;42.646;23.380;2023-08-06T02:26:30;146644.72;;;20.56;100.00
8280;BME280;8335;42.646;23.380;2023-08-06T02:28:59;146638.47;;;20.53;100.00
8280;BME280;8335;42.646;23.380;2023-08-06T02:31:25;146614.63;;;20.44;100.00
8280;BME280;8335;42.646;23.380;2023-08-06T02:33:52;146593.31;;;20.35;100.00
8280;BME280;8335;42.646;23.380;2023-08-06T02:36:20;146541.97;;;20.14;100.00
8280;BME280;8335;42.646;23.380;2023-08-06T02:38:47;146544.50;;;20.15;100.00
8280;BME280;8335;42.646;23.380;2023-08-06T02:41:13;146528.22;;;20.09;100.00
8280;BME280;8335;42.646;23.380;2023-08-06T02:43:40;146536.97;;;20.12;100.00
8280;BME280;8335;42.646;23.380;2023-08-06T02:46:08;146535.72;;;20.12;100.00
8280;BME280;8335;42.646;23.380;2023-08-06T02:48:35;146540.72;;;20.14;100.00
8280;BME280;8335;42.646;23.380;2023-08-06T02:51:02;146539.47;;;20.13;100.00
8280;BME280;8335;42.646;23.380;2023-08-06T02:53:29;146538.22;;;20.13;100.00
8280;BME280;8335;42.646;23.380;2023-08-06T02:55:57;146531.97;;;20.10;100.00
8280;BME280;8335;42.646;23.380;2023-08-06T02:58:24;146536.97;;;20.12;100.00
8280;BME280;8335;42.646;23.380;2023-08-06T03:01:01;146500.66;;;19.97;100.00
8280;BME280;8335;42.646;23.380;2023-08-06T03:03:30;146557.00;;;20.20;100.00
8280;BME280;8335;42.646;23.380;2023-08-06T03:05:57;146570.78;;;20.26;100.00
8280;BME280;8335;42.646;23.380;2023-08-06T03:08:24;146583.31;;;20.31;100.00
8280;BME280;8335;42.646;23.380;2023-08-06T03:10:51;146594.56;;;20.35;100.00
8280;BME280;8335;42.646;23.380;2023-08-06T03:13:19;146598.34;;;20.37;100.00
8280;BME280;8335;42.646;23.380;2023-08-06T03:15:52;146583.31;;;20.31;100.00
8280;BME280;8335;42.646;23.380;2023-08-06T03:18:19;146579.56;;;20.29;100.00
8280;BME280;8335;42.646;23.380;2023-08-06T03:20:47;146572.03;;;20.26;100.00
8280;BME280;8335;42.646;23.380;2023-08-06T03:23:14;146526.97;;;20.08;100.00
8280;BME280;8335;42.646;23.380;2023-08-06T03:25:41;146513.19;;;20.02;100.00
8280;BME280;8335;42.646;23.380;2023-08-06T03:28:08;146481.88;;;19.90;100.00
8280;BME280;8335;42.646;23.380;2023-08-06T03:30:34;146480.63;;;19.89;100.00
8280;BME280;8335;42.646;23.380;2023-08-06T03:33:01;146481.88;;;19.90;100.00
8280;BME280;8335;42.646;23.380;2023-08-06T03:35:28;146489.38;;;19.93;100.00
8280;BME280;8335;42.646;23.380;2023-08-06T03:37:56;146460.59;;;19.81;100.00
8280;BME280;8335;42.646;23.380;2023-08-06T03:40:23;146483.13;;;19.90;100.00
8280;BME280;8335;42.646;23.380;2023-08-06T03:42:50;146459.34;;;19.81;100.00
8280;BME280;8335;42.646;23.380;2023-08-06T03:45:16;146463.09;;;19.82;100.00
8280;BME280;8335;42.646;23.380;2023-08-06T03:47:43;146465.59;;;19.83;100.00
8280;BME280;8335;42.646;23.380;2023-08-06T03:50:10;146466.84;;;19.84;100.00
8280;BME280;8335;42.646;23.380;2023-08-06T03:52:37;146458.09;;;19.80;100.00
8280;BME280;8335;42.646;23.380;2023-08-06T03:55:05;146454.31;;;19.78;100.00
8280;BME280;8335;42.646;23.380;2023-08-06T03:57:32;146464.34;;;19.83;100.00
8280;BME280;8335;42.646;23.380;2023-08-06T03:59:59;146476.88;;;19.88;100.00
8280;BME280;8335;42.646;23.380;2023-08-06T04:02:26;146478.13;;;19.88;100.00
8280;BME280;8335;42.646;23.380;2023-08-06T04:04:53;146464.34;;;19.83;100.00
8280;BME280;8335;42.646;23.380;2023-08-06T04:07:19;146463.09;;;19.82;100.00
8280;BME280;8335;42.646;23.380;2023-08-06T04:09:53;146431.78;;;19.69;100.00
8280;BME280;8335;42.646;23.380;2023-08-06T04:12:22;146428.06;;;19.68;100.00
8280;BME280;8335;42.646;23.380;2023-08-06T04:14:50;146441.84;;;19.73;100.00
8280;BME280;8335;42.646;23.380;2023-08-06T04:17:17;146440.59;;;19.73;100.00
8280;BME280;8335;42.646;23.380;2023-08-06T04:19:46;146440.59;;;19.73;100.00
8280;BME280;8335;42.646;23.380;2023-08-06T04:22:13;146475.63;;;19.87;100.00
8280;BME280;8335;42.646;23.380;2023-08-06T04:24:41;146498.16;;;19.96;100.00
8280;BME280;8335;42.646;23.380;2023-08-06T04:27:08;146516.94;;;20.04;100.00
8280;BME280;8335;42.646;23.380;2023-08-06T04:29:37;146531.97;;;20.10;100.00
8280;BME280;8335;42.646;23.380;2023-08-06T04:32:06;146550.75;;;20.18;100.00
8280;BME280;8335;42.646;23.380;2023-08-06T04:34:34;146565.78;;;20.24;100.00
8280;BME280;8335;42.646;23.380;2023-08-06T04:37:01;146582.06;;;20.30;100.00
8280;BME280;8335;42.646;23.380;2023-08-06T04:39:28;146594.56;;;20.35;100.00
8280;BME280;8335;42.646;23.380;2023-08-06T04:41:55;146579.56;;;20.29;100.00
8280;BME280;8335;42.646;23.380;2023-08-06T04:44:22;146590.81;;;20.34;100.00
8280;BME280;8335;42.646;23.380;2023-08-06T04:46:50;146624.69;;;20.48;100.00
8280;BME280;8335;42.646;23.380;2023-08-06T04:49:19;146652.25;;;20.59;100.00
8280;BME280;8335;42.646;23.380;2023-08-06T04:51:46;146671.03;;;20.67;100.00
8280;BME280;8335;42.646;23.380;2023-08-06T04:54:13;146676.03;;;20.69;100.00
8280;BME280;8335;42.646;23.380;2023-08-06T04:56:40;146696.06;;;20.77;100.00
8280;BME280;8335;42.646;23.380;2023-08-06T04:59:06;146706.13;;;20.81;100.00
8280;BME280;8335;42.646;23.380;2023-08-06T05:01:33;146744.94;;;20.97;100.00
8280;BME280;8335;42.646;23.380;2023-08-06T05:04:01;146778.78;;;21.10;100.00
8280;BME280;8335;42.646;23.380;2023-08-06T05:06:28;146822.66;;;21.28;100.00
8280;BME280;8335;42.646;23.380;2023-08-06T05:08:55;146866.56;;;21.46;100.00
8280;BME280;8335;42.646;23.380;2023-08-06T05:11:22;146919.22;;;21.67;100.00
8280;BME280;8335;42.646;23.380;2023-08-06T05:13:49;147151.25;;;22.62;100.00
8280;BME280;8335;42.646;23.380;2023-08-06T05:16:16;147349.53;;;23.42;98.51
8280;BME280;8335;42.646;23.380;2023-08-06T05:18:42;147357.09;;;23.45;95.19
8280;BME280;8335;42.646;23.380;2023-08-06T05:21:11;147256.66;;;23.04;96.99
8280;BME280;8335;42.646;23.380;2023-08-06T05:23:37;147175.06;;;22.71;99.35
8280;BME280;8335;42.646;23.380;2023-08-06T05:26:04;147079.75;;;22.33;100.00
8280;BME280;8335;42.646;23.380;2023-08-06T05:28:31;147067.19;;;22.28;100.00
8280;BME280;8335;42.646;23.380;2023-08-06T05:30:58;147072.25;;;22.30;100.00
8280;BME280;8335;42.646;23.380;2023-08-06T05:33:24;147076.00;;;22.31;100.00
8280;BME280;8335;42.646;23.380;2023-08-06T05:35:51;147078.50;;;22.32;100.00
8280;BME280;8335;42.646;23.380;2023-08-06T05:38:19;147081.00;;;22.33;100.00
8280;BME280;8335;42.646;23.380;2023-08-06T05:40:46;147143.72;;;22.59;100.00
8280;BME280;8335;42.646;23.380;2023-08-06T05:43:14;147237.84;;;22.97;99.28
8280;BME280;8335;42.646;23.380;2023-08-06T05:45:44;147362.09;;;23.47;97.69
8280;BME280;8335;42.646;23.380;2023-08-06T05:48:11;147505.25;;;24.05;94.33
8280;BME280;8335;42.646;23.380;2023-08-06T05:50:38;147593.19;;;24.41;91.64
8280;BME280;8335;42.646;23.380;2023-08-06T05:53:05;147746.47;;;25.03;89.98
8280;BME280;8335;42.646;23.380;2023-08-06T05:55:33;148057.00;;;26.29;85.03
8280;BME280;8335;42.646;23.380;2023-08-06T05:58:01;148371.63;;;27.56;76.70
8280;BME280;8335;42.646;23.380;2023-08-06T06:00:27;148666.34;;;28.75;72.22
8280;BME280;8335;42.646;23.380;2023-08-06T06:02:54;148758.31;;;29.13;69.76
8280;BME280;8335;42.646;23.380;2023-08-06T06:05:21;148831.41;;;29.42;67.51
8280;BME280;8335;42.646;23.380;2023-08-06T06:07:47;148924.72;;;29.80;63.70
8280;BME280;8335;42.646;23.380;2023-08-06T06:10:14;149107.53;;;30.54;58.30
8280;BME280;8335;42.646;23.380;2023-08-06T06:12:42;149077.28;;;30.41;56.40
8280;BME280;8335;42.646;23.380;2023-08-06T06:15:09;149005.41;;;30.12;56.03
8280;BME280;8335;42.646;23.380;2023-08-06T06:17:36;148922.16;;;29.79;57.36
8280;BME280;8335;42.646;23.380;2023-08-06T06:20:04;148758.31;;;29.13;57.72
8280;BME280;8335;42.646;23.380;2023-08-06T06:22:31;148638.59;;;28.64;59.69
8280;BME280;8335;42.646;23.380;2023-08-06T06:24:58;148643.69;;;28.66;60.73
8280;BME280;8335;42.646;23.380;2023-08-06T06:27:24;148559.31;;;28.32;62.55
8280;BME280;8335;42.646;23.380;2023-08-06T06:29:52;148482.47;;;28.01;62.46
8280;BME280;8335;42.646;23.380;2023-08-06T06:32:20;148325.09;;;27.37;65.23
8280;BME280;8335;42.646;23.380;2023-08-06T06:34:47;148181.63;;;26.79;67.22
8280;BME280;8335;42.646;23.380;2023-08-06T06:37:14;148060.81;;;26.30;68.89
8280;BME280;8335;42.646;23.380;2023-08-06T06:39:40;147948.88;;;25.85;70.45
8280;BME280;8335;42.646;23.380;2023-08-06T06:42:07;147849.56;;;25.45;71.67
8280;BME280;8335;42.646;23.380;2023-08-06T06:44:34;147762.84;;;25.10;73.33
8280;BME280;8335;42.646;23.380;2023-08-06T06:47:02;147667.28;;;24.71;75.64
8280;BME280;8335;42.646;23.380;2023-08-06T06:49:29;147580.63;;;24.36;77.86
8280;BME280;8335;42.646;23.380;2023-08-06T06:51:56;147565.56;;;24.30;79.35
8280;BME280;8335;42.646;23.380;2023-08-06T06:54:22;147536.66;;;24.18;80.33
8280;BME280;8335;42.646;23.380;2023-08-06T06:56:49;147547.97;;;24.23;79.83
8280;BME280;8335;42.646;23.380;2023-08-06T06:59:16;147560.50;;;24.28;78.70
8280;BME280;8335;42.646;23.380;2023-08-06T07:01:43;147521.56;;;24.12;79.54
8280;BME280;8335;42.646;23.380;2023-08-06T07:04:11;147515.31;;;24.09;80.84
8280;BME280;8335;42.646;23.380;2023-08-06T07:06:37;147530.38;;;24.15;81.05
8280;BME280;8335;42.646;23.380;2023-08-06T07:09:04;147573.13;;;24.33;79.97
8280;BME280;8335;42.646;23.380;2023-08-06T07:11:31;147629.63;;;24.56;77.45
8280;BME280;8335;42.646;23.380;2023-08-06T07:13:58;147760.34;;;25.09;74.31
8280;BME280;8335;42.646;23.380;2023-08-06T07:16:25;148028.13;;;26.17;70.96
8280;BME280;8335;42.646;23.380;2023-08-06T07:18:53;148271.00;;;27.15;66.15
8280;BME280;8335;42.646;23.380;2023-08-06T07:21:21;148498.84;;;28.08;61.54
8280;BME280;8335;42.646;23.380;2023-08-06T07:23:48;148711.75;;;28.94;56.88
8280;BME280;8335;42.646;23.380;2023-08-06T07:26:15;148797.38;;;29.28;56.31
8280;BME280;8335;42.646;23.380;2023-08-06T07:28:42;149014.25;;;30.16;54.20
8280;BME280;8335;42.646;23.380;2023-08-06T07:31:09;149217.28;;;30.98;50.73
8280;BME280;8335;42.646;23.380;2023-08-06T07:33:36;149465.91;;;31.98;46.83
8280;BME280;8335;42.646;23.380;2023-08-06T07:36:08;149607.31;;;32.55;45.43
8280;BME280;8335;42.646;23.380;2023-08-06T07:38:36;149736.13;;;33.07;43.61
8280;BME280;8335;42.646;23.380;2023-08-06T07:41:03;149882.72;;;33.66;42.27
8280;BME280;8335;42.646;23.380;2023-08-06T07:43:30;150029.31;;;34.26;40.99
8280;BME280;8335;42.646;23.380;2023-08-06T07:45:57;150110.25;;;34.58;38.75
8280;BME280;8335;42.646;23.380;2023-08-06T07:48:24;150017.91;;;34.21;38.51
8280;BME280;8335;42.646;23.380;2023-08-06T07:50:51;150134.25;;;34.68;38.49
8280;BME280;8335;42.646;23.380;2023-08-06T07:53:19;150226.56;;;35.05;37.20
8280;BME280;8335;42.646;23.380;2023-08-06T07:55:49;150368.22;;;35.62;35.32
8280;BME280;8335;42.646;23.380;2023-08-06T07:58:17;150348.00;;;35.54;35.34
8280;BME280;8335;42.646;23.380;2023-08-06T08:00:43;150470.72;;;36.03;35.41
8280;BME280;8335;42.646;23.380;2023-08-06T08:03:11;150470.72;;;36.03;35.41
8280;BME280;8335;42.646;23.380;2023-08-06T08:05:37;150459.31;;;35.99;34.99
8280;BME280;8335;42.646;23.380;2023-08-06T08:08:04;150477.03;;;36.06;33.90
8280;BME280;8335;42.646;23.380;2023-08-06T08:10:31;150577.03;;;36.46;34.67
8280;BME280;8335;42.646;23.380;2023-08-06T08:12:59;150593.47;;;36.53;33.46
8280;BME280;8335;42.646;23.380;2023-08-06T08:15:28;150545.34;;;36.33;33.66
8280;BME280;8335;42.646;23.380;2023-08-06T08:17:55;150532.69;;;36.28;34.29
8280;BME280;8335;42.646;23.380;2023-08-06T08:20:22;150607.41;;;36.58;33.76
8280;BME280;8335;42.646;23.380;2023-08-06T08:22:49;150616.25;;;36.62;32.78
8280;BME280;8335;42.646;23.380;2023-08-06T08:25:16;150673.16;;;36.85;33.27
8280;BME280;8335;42.646;23.380;2023-08-06T08:27:43;150550.41;;;36.35;33.81
8280;BME280;8335;42.646;23.380;2023-08-06T08:30:11;150359.41;;;35.59;33.29
8280;BME280;8335;42.646;23.380;2023-08-06T08:32:38;150196.22;;;34.93;34.90
8280;BME280;8335;42.646;23.380;2023-08-06T08:35:05;150093.81;;;34.52;36.78
8280;BME280;8335;42.646;23.380;2023-08-06T08:37:31;150084.97;;;34.48;36.41
8280;BME280;8335;42.646;23.380;2023-08-06T08:39:58;150234.19;;;35.08;35.36
8280;BME280;8335;42.646;23.380;2023-08-06T08:42:26;150364.44;;;35.61;35.05
8280;BME280;8335;42.646;23.380;2023-08-06T08:44:53;150463.09;;;36.00;33.96
8280;BME280;8335;42.646;23.380;2023-08-06T08:47:23;150525.13;;;36.25;33.51
8280;BME280;8335;42.646;23.380;2023-08-06T08:49:52;150517.53;;;36.22;33.73
8280;BME280;8335;42.646;23.380;2023-08-06T08:52:21;150707.38;;;36.99;32.33
8280;BME280;8335;42.646;23.380;2023-08-06T08:54:49;150842.88;;;37.53;31.58
8280;BME280;8335;42.646;23.380;2023-08-06T08:57:18;150891.00;;;37.72;31.49
8280;BME280;8335;42.646;23.380;2023-08-06T08:59:45;150740.31;;;37.12;31.80
8280;BME280;8335;42.646;23.380;2023-08-06T09:02:13;150784.63;;;37.30;33.02
8280;BME280;8335;42.646;23.380;2023-08-06T09:04:44;150955.59;;;37.98;31.61
8280;BME280;8335;42.646;23.380;2023-08-06T09:07:13;151058.22;;;38.40;31.29
8280;BME280;8335;42.646;23.380;2023-08-06T09:09:43;151040.50;;;38.33;31.04
8280;BME280;8335;42.646;23.380;2023-08-06T09:12:13;150873.28;;;37.65;31.45
8280;BME280;8335;42.646;23.380;2023-08-06T09:14:41;150902.38;;;37.77;30.22
8280;BME280;8335;42.646;23.380;2023-08-06T09:17:07;150860.59;;;37.60;30.86
8280;BME280;8335;42.646;23.380;2023-08-06T09:19:36;150889.69;;;37.72;31.01
8280;BME280;8335;42.646;23.380;2023-08-06T09:22:05;150896.06;;;37.74;30.48
8280;BME280;8335;42.646;23.380;2023-08-06T09:24:38;150846.66;;;37.55;32.40
8280;BME280;8335;42.646;23.380;2023-08-06T09:27:05;150828.94;;;37.47;32.97
8280;BME280;8335;42.646;23.380;2023-08-06T09:29:31;150875.81;;;37.66;32.23
8280;BME280;8335;42.646;23.380;2023-08-06T09:31:59;150915.09;;;37.82;31.22
8280;BME280;8335;42.646;23.380;2023-08-06T09:34:26;150993.56;;;38.14;31.10
8280;BME280;8335;42.646;23.380;2023-08-06T09:36:53;150967.00;;;38.03;31.26
8280;BME280;8335;42.646;23.380;2023-08-06T09:39:26;150973.31;;;38.06;31.06
8280;BME280;8335;42.646;23.380;2023-08-06T09:41:56;150783.31;;;37.29;31.15
8280;BME280;8335;42.646;23.380;2023-08-06T09:44:24;150778.25;;;37.27;31.46
8280;BME280;8335;42.646;23.380;2023-08-06T09:46:53;150899.84;;;37.76;30.60
8280;BME280;8335;42.646;23.380;2023-08-06T09:49:25;150980.94;;;38.09;30.69
8280;BME280;8335;42.646;23.380;2023-08-06T09:51:52;150787.16;;;37.31;30.51
8280;BME280;8335;42.646;23.380;2023-08-06T09:54:23;150501.09;;;36.16;31.42
8280;BME280;8335;42.646;23.380;2023-08-06T09:56:52;150275.88;;;35.25;30.98
8280;BME280;8335;42.646;23.380;2023-08-06T09:59:19;150097.59;;;34.53;32.23
8280;BME280;8335;42.646;23.380;2023-08-06T10:01:47;149954.78;;;33.96;33.29
8280;BME280;8335;42.646;23.380;2023-08-06T10:04:14;149766.47;;;33.20;35.58
8280;BME280;8335;42.646;23.380;2023-08-06T10:06:46;149556.81;;;32.35;37.00
8280;BME280;8335;42.646;23.380;2023-08-06T10:09:14;149449.50;;;31.92;37.72
8280;BME280;8335;42.646;23.380;2023-08-06T10:11:42;149488.63;;;32.08;37.26
8280;BME280;8335;42.646;23.380;2023-08-06T10:14:12;149477.28;;;32.03;38.23
8280;BME280;8335;42.646;23.380;2023-08-06T10:16:41;149547.97;;;32.31;37.89
8280;BME280;8335;42.646;23.380;2023-08-06T10:19:09;149597.25;;;32.51;36.72
8280;BME280;8335;42.646;23.380;2023-08-06T10:21:38;149666.69;;;32.79;36.77
8280;BME280;8335;42.646;23.380;2023-08-06T10:24:06;149571.97;;;32.41;37.00
8280;BME280;8335;42.646;23.380;2023-08-06T10:26:35;149527.78;;;32.23;37.80
8280;BME280;8335;42.646;23.380;2023-08-06T10:29:35;149429.31;;;31.84;37.50
8280;BME280;8335;42.646;23.380;2023-08-06T10:32:02;149226.16;;;31.02;39.26
8280;BME280;8335;42.646;23.380;2023-08-06T10:34:54;149223.63;;;31.01;39.50
8280;BME280;8335;42.646;23.380;2023-08-06T10:37:22;149179.47;;;30.83;40.24
8280;BME280;8335;42.646;23.380;2023-08-06T10:39:49;149071.00;;;30.39;41.08
8280;BME280;8335;42.646;23.380;2023-08-06T10:42:21;149002.91;;;30.11;41.01
8280;BME280;8335;42.646;23.380;2023-08-06T10:45:14;148947.41;;;29.89;40.96
8280;BME280;8335;42.646;23.380;2023-08-06T10:47:41;148837.72;;;29.45;41.89
8280;BME280;8335;42.646;23.380;2023-08-06T10:50:11;148754.56;;;29.11;43.91
8280;BME280;8335;42.646;23.380;2023-08-06T10:52:38;148657.50;;;28.72;45.71
8280;BME280;8335;42.646;23.380;2023-08-06T10:55:06;148656.25;;;28.71;46.36
8280;BME280;8335;42.646;23.380;2023-08-06T10:57:34;148581.94;;;28.41;46.73
8280;BME280;8335;42.646;23.380;2023-08-06T11:00:01;148503.88;;;28.10;48.53
8280;BME280;8335;42.646;23.380;2023-08-06T11:02:33;148430.84;;;27.80;49.53
8280;BME280;8335;42.646;23.380;2023-08-06T11:05:05;148413.22;;;27.73;50.19
8280;BME280;8335;42.646;23.380;2023-08-06T11:07:32;148375.44;;;27.58;50.81
8280;BME280;8335;42.646;23.380;2023-08-06T11:10:02;148347.72;;;27.47;52.18
8280;BME280;8335;42.646;23.380;2023-08-06T11:12:29;148336.38;;;27.42;51.08
8280;BME280;8335;42.646;23.380;2023-08-06T11:14:56;148400.63;;;27.68;51.55
8280;BME280;8335;42.646;23.380;2023-08-06T11:17:23;148459.78;;;27.92;51.02
8280;BME280;8335;42.646;23.380;2023-08-06T11:19:52;148532.78;;;28.21;51.35
8280;BME280;8335;42.646;23.380;2023-08-06T11:22:19;148613.44;;;28.54;49.77
8280;BME280;8335;42.646;23.380;2023-08-06T11:24:46;148713.00;;;28.94;49.25
8280;BME280;8335;42.646;23.380;2023-08-06T11:27:14;148734.41;;;29.03;48.38
8280;BME280;8335;42.646;23.380;2023-08-06T11:29:41;148740.69;;;29.05;47.87
8280;BME280;8335;42.646;23.380;2023-08-06T11:32:08;148707.94;;;28.92;45.51
8280;BME280;8335;42.646;23.380;2023-08-06T11:34:35;148627.31;;;28.60;43.74
8280;BME280;8335;42.646;23.380;2023-08-06T11:37:04;148578.19;;;28.40;43.75
8280;BME280;8335;42.646;23.380;2023-08-06T11:39:32;148534.09;;;28.22;45.09
8280;BME280;8335;42.646;23.380;2023-08-06T11:41:59;148479.91;;;28.00;45.64
8280;BME280;8335;42.646;23.380;2023-08-06T11:44:30;148517.72;;;28.15;45.65
8280;BME280;8335;42.646;23.380;2023-08-06T11:46:58;148537.84;;;28.23;45.65
8280;BME280;8335;42.646;23.380;2023-08-06T11:49:39;148602.09;;;28.49;48.61
8280;BME280;8335;42.646;23.380;2023-08-06T11:52:19;148594.56;;;28.46;51.22
8280;BME280;8335;42.646;23.380;2023-08-06T11:54:47;148619.72;;;28.57;50.85
8280;BME280;8335;42.646;23.380;2023-08-06T11:57:15;148595.81;;;28.47;50.00
8280;BME280;8335;42.646;23.380;2023-08-06T11:59:42;148598.31;;;28.48;50.70
8280;BME280;8335;42.646;23.380;2023-08-06T12:02:09;148564.31;;;28.34;51.57
8280;BME280;8335;42.646;23.380;2023-08-06T12:04:58;148526.50;;;28.19;50.10
8280;BME280;8335;42.646;23.380;2023-08-06T12:07:30;148507.63;;;28.11;49.61
8280;BME280;8335;42.646;23.380;2023-08-06T12:09:57;148505.13;;;28.10;49.72
8280;BME280;8335;42.646;23.380;2023-08-06T12:12:24;148516.47;;;28.15;48.83
8280;BME280;8335;42.646;23.380;2023-08-06T12:14:51;148569.41;;;28.36;49.44
8280;BME280;8335;42.646;23.380;2023-08-06T12:17:18;148559.31;;;28.32;47.95
8280;BME280;8335;42.646;23.380;2023-08-06T12:19:45;148603.34;;;28.50;48.00
8280;BME280;8335;42.646;23.380;2023-08-06T12:22:13;148641.19;;;28.65;47.53
8280;BME280;8335;42.646;23.380;2023-08-06T12:24:41;148644.94;;;28.67;46.57
8280;BME280;8335;42.646;23.380;2023-08-06T12:27:09;148619.72;;;28.57;46.96
8280;BME280;8335;42.646;23.380;2023-08-06T12:29:36;148603.34;;;28.50;47.20
8280;BME280;8335;42.646;23.380;2023-08-06T12:32:04;148609.69;;;28.52;48.31
8280;BME280;8335;42.646;23.380;2023-08-06T12:34:31;148603.34;;;28.50;48.91
8280;BME280;8335;42.646;23.380;2023-08-06T12:36:57;148613.44;;;28.54;48.46
8280;BME280;8335;42.646;23.380;2023-08-06T12:39:24;148637.34;;;28.64;47.58
8280;BME280;8335;42.646;23.380;2023-08-06T12:41:55;148657.50;;;28.72;48.56
8280;BME280;8335;42.646;23.380;2023-08-06T12:44:23;148653.72;;;28.70;48.21
8280;BME280;8335;42.646;23.380;2023-08-06T12:46:50;148636.09;;;28.63;47.74
8280;BME280;8335;42.646;23.380;2023-08-06T12:49:17;148614.69;;;28.55;46.10
8280;BME280;8335;42.646;23.380;2023-08-06T12:51:43;148612.19;;;28.54;45.95
8280;BME280;8335;42.646;23.380;2023-08-06T12:54:10;148594.56;;;28.46;46.68
8280;BME280;8335;42.646;23.380;2023-08-06T12:56:37;148565.59;;;28.35;48.12
8280;BME280;8335;42.646;23.380;2023-08-06T12:59:05;148566.84;;;28.35;47.99